sensor_id;sensor_type;location;lat;lon;timestamp;P1;durP1;ratioP1;P2;durP2;ratioP2
24681;SDS011;12802;53.390;-2.328;2022-07-23T00:00:17;12.35;;;7.45;;
24681;SDS011;12802;53.390;-2.328;2022-07-23T00:02:44;9.57;;;6.35;;
24681;SDS011;12802;53.390;-2.328;2022-07-23T00:05:10;12.65;;;7.28;;
24681;SDS011;12802;53.390;-2.328;2022-07-23T00:07:36;15.63;;;8.45;;
24681;SDS011;12802;53.390;-2.328;2022-07-23T00:10:03;11.10;;;7.13;;
24681;SDS011;12802;53.390;-2.328;2022-07-23T00:12:29;13.70;;;8.88;;
24681;SDS011;12802;53.390;-2.328;2022-07-23T00:14:55;11.85;;;8.18;;
24681;SDS011;12802;53.390;-2.328;2022-07-23T00:17:21;10.98;;;7.00;;
24681;SDS011;12802;53.390;-2.328;2022-07-23T00:19:47;15.75;;;8.90;;
24681;SDS011;12802;53.390;-2.328;2022-07-23T00:22:13;14.10;;;8.60;;
24681;SDS011;12802;53.390;-2.328;2022-07-23T00:24:38;12.20;;;7.50;;
24681;SDS011;12802;53.390;-2.328;2022-07-23T00:27:04;14.50;;;9.25;;
24681;SDS011;12802;53.390;-2.328;2022-07-23T00:29:30;16.73;;;9.77;;
24681;SDS011;12802;53.390;-2.328;2022-07-23T00:31:56;17.17;;;10.68;;
24681;SDS011;12802;53.390;-2.328;2022-07-23T00:34:22;19.83;;;12.00;;
24681;SDS011;12802;53.390;-2.328;2022-07-23T00:36:48;21.40;;;11.30;;
24681;SDS011;12802;53.390;-2.328;2022-07-23T00:39:14;18.30;;;10.18;;
24681;SDS011;12802;53.390;-2.328;2022-07-23T00:41:39;18.88;;;11.45;;
24681;SDS011;12802;53.390;-2.328;2022-07-23T00:44:18;26.88;;;12.35;;
24681;SDS011;12802;53.390;-2.328;2022-07-23T00:46:45;20.98;;;11.68;;
24681;SDS011;12802;53.390;-2.328;2022-07-23T00:49:13;18.20;;;12.07;;
24681;SDS011;12802;53.390;-2.328;2022-07-23T00:51:39;17.95;;;11.77;;
24681;SDS011;12802;53.390;-2.328;2022-07-23T00:54:06;22.00;;;11.52;;
24681;SDS011;12802;53.390;-2.328;2022-07-23T00:56:32;14.48;;;9.80;;
24681;SDS011;12802;53.390;-2.328;2022-07-23T00:58:58;18.02;;;10.55;;
24681;SDS011;12802;53.390;-2.328;2022-07-23T01:01:25;25.85;;;10.80;;
24681;SDS011;12802;53.390;-2.328;2022-07-23T01:03:51;16.35;;;10.05;;
24681;SDS011;12802;53.390;-2.328;2022-07-23T01:06:16;19.73;;;12.18;;
24681;SDS011;12802;53.390;-2.328;2022-07-23T01:08:42;17.63;;;10.57;;
24681;SDS011;12802;53.390;-2.328;2022-07-23T01:11:08;16.05;;;10.48;;
24681;SDS011;12802;53.390;-2.328;2022-07-23T01:13:34;25.48;;;11.48;;
24681;SDS011;12802;53.390;-2.328;2022-07-23T01:16:00;16.88;;;11.07;;
24681;SDS011;12802;53.390;-2.328;2022-07-23T01:18:26;26.20;;;12.75;;
24681;SDS011;12802;53.390;-2.328;2022-07-23T01:20:51;23.42;;;13.48;;
24681;SDS011;12802;53.390;-2.328;2022-07-23T01:23:17;21.38;;;13.45;;
24681;SDS011;12802;53.390;-2.328;2022-07-23T01:25:49;23.85;;;13.48;;
24681;SDS011;12802;53.390;-2.328;2022-07-23T01:28:17;23.88;;;12.77;;
24681;SDS011;12802;53.390;-2.328;2022-07-23T01:30:44;26.75;;;14.52;;
24681;SDS011;12802;53.390;-2.328;2022-07-23T01:33:10;19.60;;;13.25;;
24681;SDS011;12802;53.390;-2.328;2022-07-23T01:35:36;24.40;;;14.20;;
24681;SDS011;12802;53.390;-2.328;2022-07-23T01:38:05;23.98;;;14.63;;
24681;SDS011;12802;53.390;-2.328;2022-07-23T01:40:31;23.58;;;14.55;;
24681;SDS011;12802;53.390;-2.328;2022-07-23T01:42:57;25.38;;;13.15;;
24681;SDS011;12802;53.390;-2.328;2022-07-23T01:45:23;26.98;;;14.80;;
24681;SDS011;12802;53.390;-2.328;2022-07-23T01:47:50;25.83;;;15.05;;
24681;SDS011;12802;53.390;-2.328;2022-07-23T01:50:16;32.65;;;16.08;;
24681;SDS011;12802;53.390;-2.328;2022-07-23T01:52:46;28.23;;;15.60;;
24681;SDS011;12802;53.390;-2.328;2022-07-23T01:55:12;31.10;;;15.70;;
24681;SDS011;12802;53.390;-2.328;2022-07-23T01:57:41;22.13;;;14.60;;
24681;SDS011;12802;53.390;-2.328;2022-07-23T02:00:09;25.27;;;14.30;;
24681;SDS011;12802;53.390;-2.328;2022-07-23T02:02:45;26.88;;;14.48;;
24681;SDS011;12802;53.390;-2.328;2022-07-23T02:05:11;23.25;;;14.57;;
24681;SDS011;12802;53.390;-2.328;2022-07-23T02:07:37;23.23;;;14.63;;
24681;SDS011;12802;53.390;-2.328;2022-07-23T02:10:03;24.60;;;13.45;;
24681;SDS011;12802;53.390;-2.328;2022-07-23T02:12:29;28.13;;;14.55;;
24681;SDS011;12802;53.390;-2.328;2022-07-23T02:14:55;27.20;;;15.40;;
24681;SDS011;12802;53.390;-2.328;2022-07-23T02:17:23;26.50;;;15.05;;
24681;SDS011;12802;53.390;-2.328;2022-07-23T02:19:49;27.75;;;14.25;;
24681;SDS011;12802;53.390;-2.328;2022-07-23T02:22:15;24.23;;;15.05;;
24681;SDS011;12802;53.390;-2.328;2022-07-23T02:24:41;23.27;;;14.02;;
24681;SDS011;12802;53.390;-2.328;2022-07-23T02:27:06;22.83;;;13.57;;
24681;SDS011;12802;53.390;-2.328;2022-07-23T02:29:33;22.15;;;13.90;;
24681;SDS011;12802;53.390;-2.328;2022-07-23T02:31:59;26.50;;;15.68;;
24681;SDS011;12802;53.390;-2.328;2022-07-23T02:34:25;24.85;;;14.02;;
24681;SDS011;12802;53.390;-2.328;2022-07-23T02:36:51;24.33;;;13.82;;
24681;SDS011;12802;53.390;-2.328;2022-07-23T02:39:17;22.73;;;12.95;;
24681;SDS011;12802;53.390;-2.328;2022-07-23T02:41:42;20.77;;;12.68;;
24681;SDS011;12802;53.390;-2.328;2022-07-23T02:44:08;26.58;;;14.23;;
24681;SDS011;12802;53.390;-2.328;2022-07-23T02:46:35;19.13;;;13.10;;
24681;SDS011;12802;53.390;-2.328;2022-07-23T02:49:01;28.80;;;13.40;;
24681;SDS011;12802;53.390;-2.328;2022-07-23T02:51:30;21.52;;;12.98;;
24681;SDS011;12802;53.390;-2.328;2022-07-23T02:54:00;23.23;;;13.68;;
24681;SDS011;12802;53.390;-2.328;2022-07-23T02:56:26;24.80;;;13.45;;
24681;SDS011;12802;53.390;-2.328;2022-07-23T02:58:52;25.33;;;13.77;;
24681;SDS011;12802;53.390;-2.328;2022-07-23T03:01:19;17.92;;;12.38;;
24681;SDS011;12802;53.390;-2.328;2022-07-23T03:03:45;21.35;;;12.10;;
24681;SDS011;12802;53.390;-2.328;2022-07-23T03:06:11;16.15;;;10.77;;
24681;SDS011;12802;53.390;-2.328;2022-07-23T03:08:38;24.40;;;11.68;;
24681;SDS011;12802;53.390;-2.328;2022-07-23T03:11:04;17.88;;;11.05;;
24681;SDS011;12802;53.390;-2.328;2022-07-23T03:13:32;19.58;;;11.98;;
24681;SDS011;12802;53.390;-2.328;2022-07-23T03:15:57;17.98;;;12.05;;
24681;SDS011;12802;53.390;-2.328;2022-07-23T03:18:23;16.50;;;9.95;;
24681;SDS011;12802;53.390;-2.328;2022-07-23T03:20:49;24.13;;;11.15;;
24681;SDS011;12802;53.390;-2.328;2022-07-23T03:23:15;18.55;;;11.02;;
24681;SDS011;12802;53.390;-2.328;2022-07-23T03:25:41;21.55;;;11.68;;
24681;SDS011;12802;53.390;-2.328;2022-07-23T03:28:07;13.05;;;8.25;;
24681;SDS011;12802;53.390;-2.328;2022-07-23T03:30:33;11.35;;;8.15;;
24681;SDS011;12802;53.390;-2.328;2022-07-23T03:32:59;11.75;;;7.30;;
24681;SDS011;12802;53.390;-2.328;2022-07-23T03:35:25;14.52;;;9.93;;
24681;SDS011;12802;53.390;-2.328;2022-07-23T03:38:10;16.10;;;9.77;;
24681;SDS011;12802;53.390;-2.328;2022-07-23T03:40:37;12.93;;;8.02;;
24681;SDS011;12802;53.390;-2.328;2022-07-23T03:43:03;13.30;;;8.65;;
24681;SDS011;12802;53.390;-2.328;2022-07-23T03:45:28;16.63;;;10.13;;
24681;SDS011;12802;53.390;-2.328;2022-07-23T03:47:55;16.13;;;9.25;;
24681;SDS011;12802;53.390;-2.328;2022-07-23T03:50:22;20.58;;;8.57;;
24681;SDS011;12802;53.390;-2.328;2022-07-23T03:52:48;13.23;;;6.93;;
24681;SDS011;12802;53.390;-2.328;2022-07-23T03:55:13;13.35;;;4.57;;
24681;SDS011;12802;53.390;-2.328;2022-07-23T03:57:40;16.55;;;4.07;;
24681;SDS011;12802;53.390;-2.328;2022-07-23T04:00:06;12.00;;;3.88;;
24681;SDS011;12802;53.390;-2.328;2022-07-23T04:02:38;4.72;;;2.65;;
24681;SDS011;12802;53.390;-2.328;2022-07-23T04:05:05;6.63;;;3.47;;
24681;SDS011;12802;53.390;-2.328;2022-07-23T04:07:32;11.40;;;5.05;;
24681;SDS011;12802;53.390;-2.328;2022-07-23T04:09:58;11.13;;;6.78;;
24681;SDS011;12802;53.390;-2.328;2022-07-23T04:12:24;10.18;;;5.05;;
24681;SDS011;12802;53.390;-2.328;2022-07-23T04:14:51;11.32;;;6.45;;
24681;SDS011;12802;53.390;-2.328;2022-07-23T04:17:16;13.98;;;6.38;;
24681;SDS011;12802;53.390;-2.328;2022-07-23T04:19:42;11.73;;;8.77;;
24681;SDS011;12802;53.390;-2.328;2022-07-23T04:22:12;12.57;;;8.25;;
24681;SDS011;12802;53.390;-2.328;2022-07-23T04:24:38;16.48;;;7.43;;
24681;SDS011;12802;53.390;-2.328;2022-07-23T04:27:04;9.75;;;5.93;;
24681;SDS011;12802;53.390;-2.328;2022-07-23T04:29:31;10.38;;;4.22;;
24681;SDS011;12802;53.390;-2.328;2022-07-23T04:31:57;2.28;;;1.60;;
24681;SDS011;12802;53.390;-2.328;2022-07-23T04:34:23;3.72;;;2.35;;
24681;SDS011;12802;53.390;-2.328;2022-07-23T04:36:52;6.53;;;3.20;;
24681;SDS011;12802;53.390;-2.328;2022-07-23T04:39:18;3.28;;;2.17;;
24681;SDS011;12802;53.390;-2.328;2022-07-23T04:41:45;5.13;;;2.28;;
24681;SDS011;12802;53.390;-2.328;2022-07-23T04:44:11;4.90;;;3.08;;
24681;SDS011;12802;53.390;-2.328;2022-07-23T04:46:37;5.93;;;3.72;;
24681;SDS011;12802;53.390;-2.328;2022-07-23T04:49:05;11.38;;;3.78;;
24681;SDS011;12802;53.390;-2.328;2022-07-23T04:51:31;8.85;;;5.15;;
24681;SDS011;12802;53.390;-2.328;2022-07-23T04:53:57;7.50;;;3.15;;
24681;SDS011;12802;53.390;-2.328;2022-07-23T04:56:23;6.70;;;4.28;;
24681;SDS011;12802;53.390;-2.328;2022-07-23T04:58:49;7.50;;;4.45;;
24681;SDS011;12802;53.390;-2.328;2022-07-23T05:01:15;8.27;;;4.10;;
24681;SDS011;12802;53.390;-2.328;2022-07-23T05:03:41;5.90;;;3.97;;
24681;SDS011;12802;53.390;-2.328;2022-07-23T05:06:08;10.18;;;6.35;;
24681;SDS011;12802;53.390;-2.328;2022-07-23T05:08:35;10.02;;;5.47;;
24681;SDS011;12802;53.390;-2.328;2022-07-23T05:11:00;10.38;;;6.35;;
24681;SDS011;12802;53.390;-2.328;2022-07-23T05:13:27;6.38;;;4.82;;
24681;SDS011;12802;53.390;-2.328;2022-07-23T05:15:53;9.32;;;5.82;;
24681;SDS011;12802;53.390;-2.328;2022-07-23T05:18:20;9.13;;;5.50;;
24681;SDS011;12802;53.390;-2.328;2022-07-23T05:20:46;10.50;;;7.38;;
24681;SDS011;12802;53.390;-2.328;2022-07-23T05:23:15;14.88;;;7.40;;
24681;SDS011;12802;53.390;-2.328;2022-07-23T05:25:41;17.85;;;8.32;;
24681;SDS011;12802;53.390;-2.328;2022-07-23T05:28:07;9.07;;;5.22;;
24681;SDS011;12802;53.390;-2.328;2022-07-23T05:30:33;10.40;;;5.75;;
24681;SDS011;12802;53.390;-2.328;2022-07-23T05:33:01;20.63;;;8.63;;
24681;SDS011;12802;53.390;-2.328;2022-07-23T05:35:28;14.68;;;8.15;;
24681;SDS011;12802;53.390;-2.328;2022-07-23T05:38:23;15.38;;;8.90;;
24681;SDS011;12802;53.390;-2.328;2022-07-23T05:40:49;17.73;;;8.05;;
24681;SDS011;12802;53.390;-2.328;2022-07-23T05:43:16;14.07;;;7.68;;
24681;SDS011;12802;53.390;-2.328;2022-07-23T05:45:42;12.73;;;8.25;;
24681;SDS011;12802;53.390;-2.328;2022-07-23T05:48:08;15.02;;;10.15;;
24681;SDS011;12802;53.390;-2.328;2022-07-23T05:50:42;15.70;;;9.45;;
24681;SDS011;12802;53.390;-2.328;2022-07-23T05:53:20;16.13;;;10.40;;
24681;SDS011;12802;53.390;-2.328;2022-07-23T05:56:11;13.82;;;9.40;;
24681;SDS011;12802;53.390;-2.328;2022-07-23T05:58:37;14.10;;;9.00;;
24681;SDS011;12802;53.390;-2.328;2022-07-23T06:01:03;15.25;;;8.55;;
24681;SDS011;12802;53.390;-2.328;2022-07-23T06:03:38;23.42;;;8.80;;
24681;SDS011;12802;53.390;-2.328;2022-07-23T06:06:04;12.18;;;8.38;;
24681;SDS011;12802;53.390;-2.328;2022-07-23T06:08:30;13.77;;;8.45;;
24681;SDS011;12802;53.390;-2.328;2022-07-23T06:10:56;12.60;;;8.95;;
24681;SDS011;12802;53.390;-2.328;2022-07-23T06:13:22;18.52;;;9.73;;
24681;SDS011;12802;53.390;-2.328;2022-07-23T06:15:49;17.23;;;10.00;;
24681;SDS011;12802;53.390;-2.328;2022-07-23T06:18:15;16.27;;;9.60;;
24681;SDS011;12802;53.390;-2.328;2022-07-23T06:20:40;17.27;;;10.05;;
24681;SDS011;12802;53.390;-2.328;2022-07-23T06:23:07;20.33;;;8.93;;
24681;SDS011;12802;53.390;-2.328;2022-07-23T06:25:32;16.98;;;11.38;;
24681;SDS011;12802;53.390;-2.328;2022-07-23T06:27:58;15.93;;;9.70;;
24681;SDS011;12802;53.390;-2.328;2022-07-23T06:30:25;16.67;;;10.30;;
24681;SDS011;12802;53.390;-2.328;2022-07-23T06:32:52;25.35;;;12.52;;
24681;SDS011;12802;53.390;-2.328;2022-07-23T06:35:18;30.48;;;14.38;;
24681;SDS011;12802;53.390;-2.328;2022-07-23T06:37:45;20.20;;;12.38;;
24681;SDS011;12802;53.390;-2.328;2022-07-23T06:40:13;20.27;;;13.15;;
24681;SDS011;12802;53.390;-2.328;2022-07-23T06:42:48;22.58;;;12.63;;
24681;SDS011;12802;53.390;-2.328;2022-07-23T06:45:22;28.15;;;13.73;;
24681;SDS011;12802;53.390;-2.328;2022-07-23T06:47:51;29.67;;;15.63;;
24681;SDS011;12802;53.390;-2.328;2022-07-23T06:50:19;23.00;;;14.07;;
24681;SDS011;12802;53.390;-2.328;2022-07-23T06:52:48;30.15;;;14.32;;
24681;SDS011;12802;53.390;-2.328;2022-07-23T06:55:14;32.40;;;15.07;;
24681;SDS011;12802;53.390;-2.328;2022-07-23T06:57:40;23.30;;;14.63;;
24681;SDS011;12802;53.390;-2.328;2022-07-23T07:00:06;24.60;;;15.20;;
24681;SDS011;12802;53.390;-2.328;2022-07-23T07:02:32;24.75;;;14.05;;
24681;SDS011;12802;53.390;-2.328;2022-07-23T07:04:58;17.95;;;11.07;;
24681;SDS011;12802;53.390;-2.328;2022-07-23T07:07:24;28.15;;;14.35;;
24681;SDS011;12802;53.390;-2.328;2022-07-23T07:09:49;24.30;;;13.45;;
24681;SDS011;12802;53.390;-2.328;2022-07-23T07:12:15;25.30;;;13.15;;
24681;SDS011;12802;53.390;-2.328;2022-07-23T07:14:41;22.35;;;13.68;;
24681;SDS011;12802;53.390;-2.328;2022-07-23T07:17:07;22.85;;;12.23;;
24681;SDS011;12802;53.390;-2.328;2022-07-23T07:19:33;21.85;;;13.20;;
24681;SDS011;12802;53.390;-2.328;2022-07-23T07:21:59;27.35;;;14.07;;
24681;SDS011;12802;53.390;-2.328;2022-07-23T07:24:24;24.73;;;14.35;;
24681;SDS011;12802;53.390;-2.328;2022-07-23T07:26:50;20.63;;;12.98;;
24681;SDS011;12802;53.390;-2.328;2022-07-23T07:29:16;24.88;;;13.93;;
24681;SDS011;12802;53.390;-2.328;2022-07-23T07:31:42;22.40;;;13.18;;
24681;SDS011;12802;53.390;-2.328;2022-07-23T07:34:08;24.65;;;14.82;;
24681;SDS011;12802;53.390;-2.328;2022-07-23T07:36:33;22.77;;;13.27;;
24681;SDS011;12802;53.390;-2.328;2022-07-23T07:39:02;25.55;;;14.20;;
24681;SDS011;12802;53.390;-2.328;2022-07-23T07:41:30;25.77;;;14.07;;
24681;SDS011;12802;53.390;-2.328;2022-07-23T07:43:56;22.55;;;13.32;;
24681;SDS011;12802;53.390;-2.328;2022-07-23T07:46:22;24.17;;;13.88;;
24681;SDS011;12802;53.390;-2.328;2022-07-23T07:48:49;29.65;;;14.07;;
24681;SDS011;12802;53.390;-2.328;2022-07-23T07:51:15;29.98;;;14.85;;
24681;SDS011;12802;53.390;-2.328;2022-07-23T07:53:41;21.92;;;12.75;;
24681;SDS011;12802;53.390;-2.328;2022-07-23T07:56:07;26.00;;;15.40;;
24681;SDS011;12802;53.390;-2.328;2022-07-23T07:58:33;23.30;;;13.10;;
24681;SDS011;12802;53.390;-2.328;2022-07-23T08:00:59;28.35;;;14.90;;
24681;SDS011;12802;53.390;-2.328;2022-07-23T08:03:25;25.48;;;12.98;;
24681;SDS011;12802;53.390;-2.328;2022-07-23T08:05:51;21.08;;;12.85;;
24681;SDS011;12802;53.390;-2.328;2022-07-23T08:08:17;21.55;;;13.82;;
24681;SDS011;12802;53.390;-2.328;2022-07-23T08:10:43;23.67;;;13.50;;
24681;SDS011;12802;53.390;-2.328;2022-07-23T08:13:11;26.70;;;13.93;;
24681;SDS011;12802;53.390;-2.328;2022-07-23T08:15:39;21.55;;;12.23;;
24681;SDS011;12802;53.390;-2.328;2022-07-23T08:18:04;28.63;;;13.38;;
24681;SDS011;12802;53.390;-2.328;2022-07-23T08:20:30;27.80;;;12.85;;
24681;SDS011;12802;53.390;-2.328;2022-07-23T08:22:58;19.70;;;12.50;;
24681;SDS011;12802;53.390;-2.328;2022-07-23T08:27:52;25.30;;;14.27;;
24681;SDS011;12802;53.390;-2.328;2022-07-23T08:30:18;24.83;;;14.57;;
24681;SDS011;12802;53.390;-2.328;2022-07-23T08:33:18;22.75;;;14.40;;
24681;SDS011;12802;53.390;-2.328;2022-07-23T08:35:41;21.88;;;13.43;;
24681;SDS011;12802;53.390;-2.328;2022-07-23T08:38:12;18.65;;;12.13;;
24681;SDS011;12802;53.390;-2.328;2022-07-23T08:40:40;25.67;;;13.02;;
24681;SDS011;12802;53.390;-2.328;2022-07-23T08:43:20;22.02;;;12.45;;
24681;SDS011;12802;53.390;-2.328;2022-07-23T08:45:49;20.13;;;11.27;;
24681;SDS011;12802;53.390;-2.328;2022-07-23T08:50:44;18.90;;;12.40;;
24681;SDS011;12802;53.390;-2.328;2022-07-23T08:53:11;19.42;;;11.57;;
24681;SDS011;12802;53.390;-2.328;2022-07-23T08:55:37;28.17;;;12.95;;
24681;SDS011;12802;53.390;-2.328;2022-07-23T08:58:03;19.23;;;10.93;;
24681;SDS011;12802;53.390;-2.328;2022-07-23T09:00:29;20.42;;;11.73;;
24681;SDS011;12802;53.390;-2.328;2022-07-23T09:02:55;20.02;;;12.00;;
24681;SDS011;12802;53.390;-2.328;2022-07-23T09:05:21;19.75;;;9.38;;
24681;SDS011;12802;53.390;-2.328;2022-07-23T09:08:03;12.00;;;7.95;;
24681;SDS011;12802;53.390;-2.328;2022-07-23T09:13:39;17.05;;;8.65;;
24681;SDS011;12802;53.390;-2.328;2022-07-23T09:18:57;18.05;;;8.77;;
24681;SDS011;12802;53.390;-2.328;2022-07-23T09:21:26;20.52;;;8.68;;
24681;SDS011;12802;53.390;-2.328;2022-07-23T09:23:56;14.50;;;9.13;;
24681;SDS011;12802;53.390;-2.328;2022-07-23T09:36:56;15.30;;;7.47;;
24681;SDS011;12802;53.390;-2.328;2022-07-23T09:39:30;11.80;;;6.60;;
24681;SDS011;12802;53.390;-2.328;2022-07-23T09:41:59;10.63;;;5.72;;
24681;SDS011;12802;53.390;-2.328;2022-07-23T09:44:50;7.50;;;4.43;;
24681;SDS011;12802;53.390;-2.328;2022-07-23T09:47:17;6.65;;;3.47;;
24681;SDS011;12802;53.390;-2.328;2022-07-23T09:50:00;10.50;;;4.00;;
24681;SDS011;12802;53.390;-2.328;2022-07-23T09:52:27;4.68;;;3.40;;
24681;SDS011;12802;53.390;-2.328;2022-07-23T09:54:58;6.25;;;3.65;;
24681;SDS011;12802;53.390;-2.328;2022-07-23T09:57:28;5.13;;;3.15;;
24681;SDS011;12802;53.390;-2.328;2022-07-23T09:59:57;3.33;;;1.80;;
24681;SDS011;12802;53.390;-2.328;2022-07-23T10:02:25;3.95;;;2.08;;
24681;SDS011;12802;53.390;-2.328;2022-07-23T10:05:19;5.57;;;2.40;;
24681;SDS011;12802;53.390;-2.328;2022-07-23T10:08:05;3.10;;;1.83;;
24681;SDS011;12802;53.390;-2.328;2022-07-23T10:10:52;5.63;;;1.98;;
24681;SDS011;12802;53.390;-2.328;2022-07-23T10:13:36;4.00;;;1.65;;
24681;SDS011;12802;53.390;-2.328;2022-07-23T10:16:27;4.30;;;1.90;;
24681;SDS011;12802;53.390;-2.328;2022-07-23T10:18:53;4.18;;;1.52;;
24681;SDS011;12802;53.390;-2.328;2022-07-23T10:21:54;2.15;;;1.55;;
24681;SDS011;12802;53.390;-2.328;2022-07-23T10:24:18;2.10;;;1.30;;
24681;SDS011;12802;53.390;-2.328;2022-07-23T10:27:04;3.17;;;1.50;;
24681;SDS011;12802;53.390;-2.328;2022-07-23T10:32:14;6.45;;;1.10;;
24681;SDS011;12802;53.390;-2.328;2022-07-23T10:34:57;2.20;;;1.17;;
24681;SDS011;12802;53.390;-2.328;2022-07-23T10:37:33;3.65;;;1.48;;
24681;SDS011;12802;53.390;-2.328;2022-07-23T10:40:10;8.57;;;1.75;;
24681;SDS011;12802;53.390;-2.328;2022-07-23T10:42:45;3.08;;;1.30;;
24681;SDS011;12802;53.390;-2.328;2022-07-23T10:45:30;3.45;;;1.50;;
24681;SDS011;12802;53.390;-2.328;2022-07-23T11:02:25;2.17;;;1.23;;
24681;SDS011;12802;53.390;-2.328;2022-07-23T11:04:53;1.60;;;1.30;;
24681;SDS011;12802;53.390;-2.328;2022-07-23T11:07:19;2.13;;;1.10;;
24681;SDS011;12802;53.390;-2.328;2022-07-23T11:09:45;1.70;;;1.40;;
24681;SDS011;12802;53.390;-2.328;2022-07-23T11:17:27;2.95;;;1.52;;
24681;SDS011;12802;53.390;-2.328;2022-07-23T11:27:47;3.10;;;1.35;;
24681;SDS011;12802;53.390;-2.328;2022-07-23T11:32:51;4.32;;;1.60;;
24681;SDS011;12802;53.390;-2.328;2022-07-23T11:35:33;2.63;;;1.67;;
24681;SDS011;12802;53.390;-2.328;2022-07-23T11:40:38;4.68;;;2.65;;
24681;SDS011;12802;53.390;-2.328;2022-07-23T11:43:05;3.08;;;1.95;;
24681;SDS011;12802;53.390;-2.328;2022-07-23T11:45:36;3.47;;;2.00;;
24681;SDS011;12802;53.390;-2.328;2022-07-23T11:48:05;3.08;;;1.90;;
24681;SDS011;12802;53.390;-2.328;2022-07-23T11:50:32;3.83;;;2.20;;
24681;SDS011;12802;53.390;-2.328;2022-07-23T11:52:59;3.30;;;2.17;;
24681;SDS011;12802;53.390;-2.328;2022-07-23T11:55:25;5.55;;;2.15;;
24681;SDS011;12802;53.390;-2.328;2022-07-23T11:57:51;5.40;;;2.00;;
24681;SDS011;12802;53.390;-2.328;2022-07-23T12:00:19;3.25;;;2.00;;
24681;SDS011;12802;53.390;-2.328;2022-07-23T12:02:47;2.50;;;2.03;;
24681;SDS011;12802;53.390;-2.328;2022-07-23T12:05:28;7.28;;;2.00;;
24681;SDS011;12802;53.390;-2.328;2022-07-23T12:07:57;5.82;;;1.75;;
24681;SDS011;12802;53.390;-2.328;2022-07-23T12:10:25;4.68;;;2.13;;
24681;SDS011;12802;53.390;-2.328;2022-07-23T12:12:59;4.00;;;2.03;;
24681;SDS011;12802;53.390;-2.328;2022-07-23T12:15:46;2.50;;;1.75;;
24681;SDS011;12802;53.390;-2.328;2022-07-23T12:18:14;6.80;;;2.15;;
24681;SDS011;12802;53.390;-2.328;2022-07-23T12:20:47;2.40;;;1.67;;
24681;SDS011;12802;53.390;-2.328;2022-07-23T12:23:17;3.95;;;1.80;;
24681;SDS011;12802;53.390;-2.328;2022-07-23T12:25:45;10.43;;;2.30;;
24681;SDS011;12802;53.390;-2.328;2022-07-23T12:30:48;2.72;;;1.95;;
24681;SDS011;12802;53.390;-2.328;2022-07-23T12:35:59;2.90;;;1.52;;
24681;SDS011;12802;53.390;-2.328;2022-07-23T12:38:35;2.13;;;1.60;;
24681;SDS011;12802;53.390;-2.328;2022-07-23T12:41:03;1.88;;;1.40;;
24681;SDS011;12802;53.390;-2.328;2022-07-23T12:43:31;3.47;;;1.63;;
24681;SDS011;12802;53.390;-2.328;2022-07-23T12:51:24;13.02;;;1.80;;
24681;SDS011;12802;53.390;-2.328;2022-07-23T12:53:58;3.90;;;1.95;;
24681;SDS011;12802;53.390;-2.328;2022-07-23T12:56:33;4.15;;;2.00;;
24681;SDS011;12802;53.390;-2.328;2022-07-23T13:01:30;5.60;;;1.80;;
24681;SDS011;12802;53.390;-2.328;2022-07-23T13:04:01;3.90;;;2.03;;
24681;SDS011;12802;53.390;-2.328;2022-07-23T13:06:32;2.05;;;1.38;;
24681;SDS011;12802;53.390;-2.328;2022-07-23T13:09:04;3.05;;;2.03;;
24681;SDS011;12802;53.390;-2.328;2022-07-23T13:11:31;5.65;;;2.05;;
24681;SDS011;12802;53.390;-2.328;2022-07-23T13:13:57;6.10;;;2.08;;
24681;SDS011;12802;53.390;-2.328;2022-07-23T13:16:25;4.78;;;2.00;;
24681;SDS011;12802;53.390;-2.328;2022-07-23T13:18:55;1.65;;;1.35;;
24681;SDS011;12802;53.390;-2.328;2022-07-23T13:21:22;9.55;;;2.55;;
24681;SDS011;12802;53.390;-2.328;2022-07-23T13:23:48;3.45;;;2.45;;
24681;SDS011;12802;53.390;-2.328;2022-07-23T13:26:14;3.63;;;2.17;;
24681;SDS011;12802;53.390;-2.328;2022-07-23T13:28:40;5.40;;;2.55;;
24681;SDS011;12802;53.390;-2.328;2022-07-23T13:31:06;4.80;;;2.60;;
24681;SDS011;12802;53.390;-2.328;2022-07-23T13:33:33;4.47;;;2.28;;
24681;SDS011;12802;53.390;-2.328;2022-07-23T13:35:59;5.00;;;2.08;;
24681;SDS011;12802;53.390;-2.328;2022-07-23T13:38:25;4.88;;;2.72;;
24681;SDS011;12802;53.390;-2.328;2022-07-23T13:40:51;4.25;;;2.42;;
24681;SDS011;12802;53.390;-2.328;2022-07-23T13:43:20;4.97;;;2.50;;
24681;SDS011;12802;53.390;-2.328;2022-07-23T13:45:48;5.10;;;2.58;;
24681;SDS011;12802;53.390;-2.328;2022-07-23T13:48:14;4.70;;;2.45;;
24681;SDS011;12802;53.390;-2.328;2022-07-23T13:50:41;5.03;;;2.90;;
24681;SDS011;12802;53.390;-2.328;2022-07-23T13:53:09;4.78;;;2.40;;
24681;SDS011;12802;53.390;-2.328;2022-07-23T13:55:37;3.25;;;2.65;;
24681;SDS011;12802;53.390;-2.328;2022-07-23T13:58:04;5.25;;;2.55;;
24681;SDS011;12802;53.390;-2.328;2022-07-23T14:00:30;3.67;;;2.75;;
24681;SDS011;12802;53.390;-2.328;2022-07-23T14:02:58;4.57;;;2.97;;
24681;SDS011;12802;53.390;-2.328;2022-07-23T14:05:25;5.68;;;3.33;;
24681;SDS011;12802;53.390;-2.328;2022-07-23T14:07:51;6.70;;;3.40;;
24681;SDS011;12802;53.390;-2.328;2022-07-23T14:10:18;7.38;;;2.88;;
24681;SDS011;12802;53.390;-2.328;2022-07-23T14:12:45;6.70;;;3.17;;
24681;SDS011;12802;53.390;-2.328;2022-07-23T14:15:13;6.78;;;2.92;;
24681;SDS011;12802;53.390;-2.328;2022-07-23T14:17:41;4.10;;;2.70;;
24681;SDS011;12802;53.390;-2.328;2022-07-23T14:20:08;5.22;;;2.58;;
24681;SDS011;12802;53.390;-2.328;2022-07-23T14:22:35;4.70;;;3.17;;
24681;SDS011;12802;53.390;-2.328;2022-07-23T14:25:02;5.80;;;3.33;;
24681;SDS011;12802;53.390;-2.328;2022-07-23T14:27:29;5.80;;;3.08;;
24681;SDS011;12802;53.390;-2.328;2022-07-23T14:29:55;5.30;;;2.88;;
24681;SDS011;12802;53.390;-2.328;2022-07-23T14:32:21;8.18;;;2.95;;
24681;SDS011;12802;53.390;-2.328;2022-07-23T14:34:47;3.63;;;2.67;;
24681;SDS011;12802;53.390;-2.328;2022-07-23T14:37:14;4.15;;;2.60;;
24681;SDS011;12802;53.390;-2.328;2022-07-23T14:39:40;4.88;;;3.30;;
24681;SDS011;12802;53.390;-2.328;2022-07-23T14:42:07;5.25;;;2.60;;
24681;SDS011;12802;53.390;-2.328;2022-07-23T14:44:34;7.25;;;3.22;;
24681;SDS011;12802;53.390;-2.328;2022-07-23T14:47:00;3.45;;;2.65;;
24681;SDS011;12802;53.390;-2.328;2022-07-23T14:49:28;3.85;;;2.35;;
24681;SDS011;12802;53.390;-2.328;2022-07-23T14:51:54;3.20;;;2.28;;
24681;SDS011;12802;53.390;-2.328;2022-07-23T14:54:20;3.95;;;2.63;;
24681;SDS011;12802;53.390;-2.328;2022-07-23T14:56:46;3.80;;;2.35;;
24681;SDS011;12802;53.390;-2.328;2022-07-23T14:59:12;4.93;;;2.40;;
24681;SDS011;12802;53.390;-2.328;2022-07-23T15:01:38;6.47;;;2.15;;
24681;SDS011;12802;53.390;-2.328;2022-07-23T15:04:05;3.58;;;1.90;;
24681;SDS011;12802;53.390;-2.328;2022-07-23T15:06:31;3.13;;;2.42;;
24681;SDS011;12802;53.390;-2.328;2022-07-23T15:08:58;4.05;;;2.28;;
24681;SDS011;12802;53.390;-2.328;2022-07-23T15:11:25;3.25;;;1.90;;
24681;SDS011;12802;53.390;-2.328;2022-07-23T15:13:54;3.60;;;1.95;;
24681;SDS011;12802;53.390;-2.328;2022-07-23T15:16:20;2.95;;;1.52;;
24681;SDS011;12802;53.390;-2.328;2022-07-23T15:18:46;2.83;;;2.03;;
24681;SDS011;12802;53.390;-2.328;2022-07-23T15:21:12;6.10;;;1.38;;
24681;SDS011;12802;53.390;-2.328;2022-07-23T15:23:38;3.03;;;1.60;;
24681;SDS011;12802;53.390;-2.328;2022-07-23T15:26:05;2.30;;;1.73;;
24681;SDS011;12802;53.390;-2.328;2022-07-23T15:28:32;2.50;;;1.70;;
24681;SDS011;12802;53.390;-2.328;2022-07-23T15:30:59;4.88;;;1.80;;
24681;SDS011;12802;53.390;-2.328;2022-07-23T15:33:26;2.35;;;1.77;;
24681;SDS011;12802;53.390;-2.328;2022-07-23T15:35:52;3.60;;;1.58;;